Anabel, Missouri
Current Conditions -  °F | °C
As of 9:55 AM on Saturday 25 Oct 2014 (Local Time) from KIRK Reporting Station
Clear Clear  
Wind Chill: 18°   Ceiling: Unl
Heat Index: 18°   Visibility: 10mi
Dew Point: 12°   Wind: 6mph
Humidity: 68%   Direction: 360°N
Pressure: 30.08"   Gusts: NA
Location:  39.75°N, 92.34°W
Report Text: KIRK 251455Z AUTO 36005KT 10SM CLR 18/12 A3008 RMK AO2 SLP184 T01830122 53015
Loading
Personal Weather Stations






























Interactive Weather Map
Tropical Storm Tracking
New forecast layout! Learn more

10-Day Weather Forecast

Advertisements
Track Severe Weather on mobile